Time;durP1;ratioP1;P1;durP2;ratioP2;P2;SDS_P1;SDS_P2;PMS_P1;PMS_P2;Temp;Humidity;BMP_temperature;BMP_pressure;BME280_temperature;BME280_humidity;BME280_pressure;Samples;Min_cycle;Max_cycle;Signal;HPM_P1;HPM_P2
2022/02/27 00:01:08;;;;;;;24.83;13.60;;;;;;;3.62;56.93;95246.84;5069716;28;20671;-66
2022/02/27 00:03:33;;;;;;;23.88;13.82;;;;;;;3.66;57.81;95251.75;5071166;28;20090;-66
2022/02/27 00:05:59;;;;;;;24.55;13.48;;;;;;;3.67;57.10;95245.72;5070800;28;20407;-65
2022/02/27 00:08:24;;;;;;;26.52;13.65;;;;;;;3.57;57.50;95237.63;5071084;28;20032;-66
2022/02/27 00:10:50;;;;;;;23.58;13.45;;;;;;;3.40;57.34;95241.91;5069514;28;20028;-66
2022/02/27 00:13:15;;;;;;;25.10;13.75;;;;;;;3.50;56.87;95243.13;5069595;28;20036;-66
2022/02/27 00:15:40;;;;;;;27.98;14.65;;;;;;;3.36;57.14;95236.91;5052748;28;20020;-66
2022/02/27 00:18:06;;;;;;;26.63;13.65;;;;;;;3.39;57.67;95235.94;5052869;28;20051;-66
2022/02/27 00:20:31;;;;;;;27.73;15.02;;;;;;;3.22;57.76;95243.63;5070846;28;20032;-66
2022/02/27 00:22:57;;;;;;;25.90;13.93;;;;;;;3.18;58.33;95227.53;5076120;28;20125;-66
2022/02/27 00:25:22;;;;;;;25.50;13.70;;;;;;;3.27;57.48;95218.56;5077335;28;20456;-66
2022/02/27 00:27:48;;;;;;;26.92;14.57;;;;;;;3.24;57.15;95234.13;5077277;28;20444;-66
2022/02/27 00:30:13;;;;;;;27.30;15.13;;;;;;;3.20;57.24;95194.06;5076088;28;20032;-66
2022/02/27 00:32:39;;;;;;;30.00;14.98;;;;;;;3.08;57.57;95200.63;5077523;28;20082;-66
2022/02/27 00:35:05;;;;;;;27.42;14.32;;;;;;;3.09;57.73;95204.84;5059279;28;20036;-66
2022/02/27 00:37:30;;;;;;;30.20;15.20;;;;;;;3.13;57.54;95194.38;5077251;28;20545;-66
2022/02/27 00:39:56;;;;;;;27.75;14.32;;;;;;;3.08;57.46;95193.75;5075852;28;20033;-66
2022/02/27 00:42:21;;;;;;;25.08;13.98;;;;;;;3.09;57.00;95192.00;5077186;28;20032;-66
2022/02/27 00:44:47;;;;;;;26.20;13.35;;;;;;;3.00;57.18;95198.41;5077196;28;20078;-66
2022/02/27 00:47:12;;;;;;;25.05;13.70;;;;;;;3.05;57.42;95181.06;5075798;28;20021;-66
2022/02/27 00:49:37;;;;;;;24.17;13.10;;;;;;;3.11;56.79;95169.66;5077151;28;20040;-66
2022/02/27 00:52:03;;;;;;;24.83;13.10;;;;;;;3.17;57.13;95176.25;5059152;28;20024;-66
2022/02/27 00:54:29;;;;;;;27.40;13.65;;;;;;;3.12;57.39;95166.19;5076076;28;20039;-66
2022/02/27 00:56:54;;;;;;;23.35;12.55;;;;;;;3.04;57.51;95170.88;5075765;28;20055;-66
2022/02/27 00:59:20;;;;;;;22.65;13.02;;;;;;;3.03;57.63;95156.38;5075964;28;20471;-66
2022/02/27 01:01:45;;;;;;;25.55;13.48;;;;;;;3.00;57.46;95177.88;5075767;28;20036;-66
2022/02/27 01:04:11;;;;;;;22.52;13.07;;;;;;;2.99;57.49;95160.00;5076056;28;20036;-66
2022/02/27 01:06:36;;;;;;;26.52;14.38;;;;;;;2.96;57.26;95166.09;5076906;28;20039;-66
2022/02/27 01:09:02;;;;;;;26.75;14.18;;;;;;;2.96;57.81;95176.38;5077311;28;20110;-66
2022/02/27 01:11:29;;;;;;;27.08;12.82;;;;;;;3.03;57.94;95179.47;5075580;28;20506;-66
2022/02/27 01:13:56;;;;;;;26.10;14.75;;;;;;;2.88;58.00;95161.31;5075796;28;20048;-66
2022/02/27 01:16:22;;;;;;;24.40;14.10;;;;;;;3.09;58.12;95190.28;5075559;28;20157;-66
2022/02/27 01:18:48;;;;;;;26.77;13.60;;;;;;;3.08;58.18;95180.09;5075793;28;20024;-66
2022/02/27 01:21:15;;;;;;;30.05;15.50;;;;;;;3.07;58.14;95174.13;5075435;28;20044;-66
2022/02/27 01:23:42;;;;;;;29.10;14.65;;;;;;;3.18;57.68;95172.78;5075619;28;20033;-66
2022/02/27 01:26:07;;;;;;;27.33;14.65;;;;;;;3.19;56.89;95172.69;5076682;28;20032;-66
2022/02/27 01:28:32;;;;;;;22.42;12.88;;;;;;;3.17;57.95;95191.66;5075681;28;20032;-67
2022/02/27 01:30:58;;;;;;;24.48;14.23;;;;;;;3.19;57.31;95198.38;5076680;28;20059;-66
2022/02/27 01:33:24;;;;;;;25.60;14.27;;;;;;;3.10;57.39;95189.38;5072069;28;20024;-66
2022/02/27 01:35:49;;;;;;;26.40;14.18;;;;;;;3.08;57.58;95178.34;5055582;28;20036;-66
2022/02/27 01:38:14;;;;;;;23.92;13.45;;;;;;;3.15;57.31;95186.59;5072423;28;20059;-67
2022/02/27 01:40:40;;;;;;;25.90;13.57;;;;;;;2.85;57.49;95153.78;5072118;28;20043;-66
2022/02/27 01:43:05;;;;;;;28.05;13.85;;;;;;;2.87;58.58;95167.38;5072227;28;20094;-66
2022/02/27 01:45:31;;;;;;;22.50;13.93;;;;;;;2.85;58.20;95166.59;5073340;28;20029;-66
2022/02/27 01:47:56;;;;;;;26.80;14.30;;;;;;;2.93;58.43;95171.38;5073415;28;20098;-66
2022/02/27 01:50:21;;;;;;;25.15;13.02;;;;;;;2.92;57.77;95169.69;5073255;28;20021;-66
2022/02/27 01:52:47;;;;;;;27.50;13.52;;;;;;;2.85;58.28;95174.31;5055387;28;20100;-66
2022/02/27 01:55:12;;;;;;;24.50;12.50;;;;;;;2.85;58.50;95169.19;5071968;28;20449;-66
2022/02/27 01:57:38;;;;;;;21.33;12.07;;;;;;;2.82;57.80;95166.75;5055232;28;20075;-66
2022/02/27 02:00:05;;;;;;;24.13;13.55;;;;;;;2.88;58.16;95158.75;5073009;28;20032;-66
2022/02/27 02:02:31;;;;;;;22.77;12.70;;;;;;;2.96;57.56;95167.84;5073081;28;20120;-67
2022/02/27 02:04:56;;;;;;;22.95;12.00;;;;;;;3.01;57.41;95161.59;5071794;28;20021;-66
2022/02/27 02:07:22;;;;;;;20.65;12.93;;;;;;;3.07;57.90;95171.56;5072956;28;20028;-67
2022/02/27 02:09:47;;;;;;;21.40;11.88;;;;;;;2.99;57.53;95190.81;5072933;28;20028;-66
2022/02/27 02:12:13;;;;;;;25.48;12.95;;;;;;;2.95;57.47;95195.22;5071533;28;20082;-67
2022/02/27 02:14:38;;;;;;;25.35;12.07;;;;;;;2.92;57.45;95200.50;5072912;28;20032;-66
2022/02/27 02:17:04;;;;;;;22.15;12.82;;;;;;;2.94;57.89;95188.44;5054807;28;20028;-66
2022/02/27 02:19:29;;;;;;;21.60;12.55;;;;;;;2.85;57.79;95163.22;5071663;28;20043;-66
2022/02/27 02:21:58;;;;;;;25.05;12.77;;;;;;;2.90;57.89;95161.28;5072655;28;20458;-66
2022/02/27 02:24:23;;;;;;;22.45;12.38;;;;;;;3.00;57.28;95170.19;5055147;28;20044;-67
2022/02/27 02:26:49;;;;;;;20.35;12.07;;;;;;;2.94;57.00;95139.69;5071303;28;20028;-66
2022/02/27 02:29:16;;;;;;;25.38;12.52;;;;;;;2.90;57.63;95131.31;5054571;28;20082;-67
2022/02/27 02:31:42;;;;;;;22.63;12.48;;;;;;;2.85;56.79;95106.75;5072425;28;20107;-67
2022/02/27 02:34:12;;;;;;;21.25;12.45;;;;;;;2.84;57.19;95112.78;5072882;28;20033;-66
2022/02/27 02:36:38;;;;;;;24.70;12.45;;;;;;;2.83;57.52;95134.22;5054835;28;20044;-66
2022/02/27 02:39:04;;;;;;;26.23;13.15;;;;;;;2.85;57.54;95164.03;5054632;28;20405;-66
2022/02/27 02:41:30;;;;;;;22.88;12.80;;;;;;;2.85;57.21;95181.19;5054328;28;20029;-66
2022/02/27 02:43:55;;;;;;;22.50;12.77;;;;;;;2.82;57.61;95189.03;5071995;28;20044;-66
2022/02/27 02:46:21;;;;;;;23.10;12.48;;;;;;;2.81;58.09;95192.47;5054292;28;20028;-66
2022/02/27 02:48:46;;;;;;;24.23;12.70;;;;;;;2.84;57.36;95210.28;5054316;28;20032;-67
2022/02/27 02:51:11;;;;;;;23.42;13.20;;;;;;;2.82;57.21;95215.50;5072129;28;20020;-66
2022/02/27 02:53:38;;;;;;;22.48;12.10;;;;;;;2.78;57.53;95210.56;5070804;28;20041;-66
2022/02/27 02:56:05;;;;;;;24.15;13.32;;;;;;;2.77;58.09;95209.75;5054260;28;20507;-66
2022/02/27 02:58:32;;;;;;;21.40;12.68;;;;;;;2.82;57.83;95209.56;5054431;28;20041;-66
2022/02/27 03:00:58;;;;;;;24.95;13.25;;;;;;;2.84;57.67;95202.59;5071704;28;20494;-67
2022/02/27 03:03:23;;;;;;;22.98;12.93;;;;;;;2.94;57.76;95200.44;5070775;28;20036;-66
2022/02/27 03:05:48;;;;;;;21.58;13.38;;;;;;;2.94;57.79;95191.00;5070566;28;20032;-66
2022/02/27 03:08:14;;;;;;;23.15;13.27;;;;;;;2.93;57.41;95191.91;5072062;28;20333;-66
2022/02/27 03:10:39;;;;;;;23.98;12.65;;;;;;;2.88;58.17;95191.28;5071641;28;20040;-66
2022/02/27 03:13:05;;;;;;;26.58;12.68;;;;;;;2.95;57.40;95200.34;5070516;28;20039;-66
2022/02/27 03:15:30;;;;;;;22.92;13.73;;;;;;;2.99;57.71;95206.19;5071621;28;20025;-66
2022/02/27 03:17:56;;;;;;;23.30;13.98;;;;;;;2.93;58.43;95209.06;5071692;28;20043;-67
2022/02/27 03:20:21;;;;;;;24.08;13.60;;;;;;;2.90;58.08;95208.28;5071430;28;20028;-66
2022/02/27 03:22:46;;;;;;;22.17;13.63;;;;;;;2.94;58.36;95218.41;5071430;28;20039;-66
2022/02/27 03:25:12;;;;;;;26.92;13.73;;;;;;;2.92;58.68;95226.16;5071474;28;20051;-66
2022/02/27 03:27:37;;;;;;;25.10;13.90;;;;;;;2.81;59.04;95213.00;5071416;28;20479;-67
2022/02/27 03:30:03;;;;;;;28.02;15.02;;;;;;;2.74;59.77;95214.19;5071354;28;20028;-66
2022/02/27 03:32:28;;;;;;;24.65;13.80;;;;;;;2.78;59.11;95213.16;5036842;28;20056;-66
2022/02/27 03:34:54;;;;;;;24.95;14.32;;;;;;;2.82;59.02;95217.25;5071178;28;20032;-66
2022/02/27 03:37:19;;;;;;;24.27;14.00;;;;;;;2.72;58.91;95209.13;5069798;28;20044;-66
2022/02/27 03:39:44;;;;;;;26.33;14.30;;;;;;;2.65;60.11;95203.47;5053209;28;20132;-66
2022/02/27 03:42:10;;;;;;;25.65;14.18;;;;;;;2.73;59.60;95207.38;5071118;28;20025;-66
2022/02/27 03:44:35;;;;;;;26.10;14.93;;;;;;;2.82;60.08;95192.41;5070217;28;20032;-66
2022/02/27 03:47:01;;;;;;;25.30;14.27;;;;;;;2.84;59.63;95184.63;5071073;28;20029;-67
2022/02/27 03:49:26;;;;;;;25.20;14.75;;;;;;;2.84;60.13;95185.50;5071549;28;20536;-66
2022/02/27 03:51:52;;;;;;;27.30;13.70;;;;;;;2.90;60.02;95189.50;5053097;28;20033;-66
2022/02/27 03:54:17;;;;;;;28.27;14.23;;;;;;;2.81;60.13;95188.16;5069817;28;20043;-67
2022/02/27 03:56:43;;;;;;;23.83;14.63;;;;;;;2.82;60.60;95199.28;5070417;28;20028;-66
2022/02/27 03:59:09;;;;;;;28.85;14.73;;;;;;;2.72;60.23;95193.72;5069999;28;20043;-66
2022/02/27 04:01:34;;;;;;;28.75;14.68;;;;;;;2.69;61.15;95176.75;5052943;28;20418;-66
2022/02/27 04:04:00;;;;;;;29.92;17.80;;;;;;;2.73;60.96;95177.47;5069782;28;20422;-66
2022/02/27 04:06:26;;;;;;;30.73;17.45;;;;;;;2.72;61.39;95174.94;5070835;28;20024;-66
2022/02/27 04:08:51;;;;;;;30.08;16.30;;;;;;;2.69;61.06;95184.44;5070750;28;20036;-66
2022/02/27 04:11:17;;;;;;;26.25;15.60;;;;;;;2.68;61.11;95187.09;5069530;28;20036;-66
2022/02/27 04:13:42;;;;;;;26.73;15.27;;;;;;;2.72;61.81;95200.59;5071037;28;20032;-66
2022/02/27 04:16:08;;;;;;;31.67;15.95;;;;;;;2.65;61.38;95188.06;5069546;28;20032;-66
2022/02/27 04:18:33;;;;;;;27.95;15.13;;;;;;;2.69;61.15;95204.97;5069662;28;20097;-67
2022/02/27 04:20:58;;;;;;;27.17;15.50;;;;;;;2.71;61.19;95206.66;5069355;28;20093;-67
2022/02/27 04:23:24;;;;;;;29.30;15.82;;;;;;;2.76;61.30;95199.53;5069378;28;20062;-66
2022/02/27 04:25:49;;;;;;;27.65;15.15;;;;;;;2.75;61.48;95195.31;5070625;28;20090;-66
2022/02/27 04:28:15;;;;;;;25.80;15.20;;;;;;;2.74;61.61;95203.94;5052742;28;20486;-66
2022/02/27 04:30:40;;;;;;;28.33;15.57;;;;;;;2.69;61.80;95212.66;5069347;28;20029;-66
2022/02/27 04:33:05;;;;;;;29.95;16.30;;;;;;;2.76;61.77;95212.38;5070746;28;20032;-66
2022/02/27 04:35:31;;;;;;;28.15;14.90;;;;;;;2.69;61.72;95211.84;5069353;28;20024;-66
2022/02/27 04:37:56;;;;;;;32.00;15.20;;;;;;;2.66;61.98;95214.53;5070664;28;20049;-66
2022/02/27 04:40:22;;;;;;;29.52;15.05;;;;;;;2.73;62.04;95218.50;5069223;28;20036;-66
2022/02/27 04:42:47;;;;;;;27.95;15.68;;;;;;;2.67;62.28;95211.06;5052589;28;20032;-66
2022/02/27 04:45:12;;;;;;;33.45;17.77;;;;;;;2.56;62.38;95195.31;5052566;28;20039;-66
2022/02/27 04:47:38;;;;;;;27.38;15.30;;;;;;;2.58;62.89;95207.19;5070696;28;20044;-66
2022/02/27 04:50:04;;;;;;;27.30;15.75;;;;;;;2.64;63.17;95206.91;5069234;28;20490;-66
2022/02/27 04:52:30;;;;;;;29.40;15.52;;;;;;;2.61;63.62;95201.09;5069245;28;20039;-66
2022/02/27 04:54:55;;;;;;;32.10;15.57;;;;;;;2.61;63.48;95196.78;5069139;28;20021;-66
2022/02/27 04:57:21;;;;;;;30.95;16.75;;;;;;;2.63;63.47;95201.84;5052493;28;20035;-66
2022/02/27 04:59:46;;;;;;;26.42;15.90;;;;;;;2.60;65.23;95200.25;5069168;28;20036;-66
2022/02/27 05:02:11;;;;;;;28.80;15.35;;;;;;;2.49;65.31;95197.34;5070297;28;20032;-66
2022/02/27 05:04:37;;;;;;;30.10;16.10;;;;;;;2.46;65.43;95192.38;5069062;28;20036;-66
2022/02/27 05:07:03;;;;;;;30.45;17.10;;;;;;;2.43;66.54;95187.38;5069054;28;20024;-66
2022/02/27 05:09:29;;;;;;;25.10;15.05;;;;;;;2.50;66.15;95185.34;5056396;28;20488;-66
2022/02/27 05:11:54;;;;;;;25.98;15.70;;;;;;;2.59;66.17;95190.91;5073948;28;20021;-66
2022/02/27 05:14:19;;;;;;;33.03;16.67;;;;;;;2.58;67.19;95196.09;5074363;28;20032;-66
2022/02/27 05:16:45;;;;;;;29.55;16.92;;;;;;;2.61;67.04;95204.47;5073888;28;20027;-66
2022/02/27 05:19:12;;;;;;;26.95;15.65;;;;;;;2.66;67.24;95204.28;5074193;28;20048;-66
2022/02/27 05:21:37;;;;;;;28.42;16.50;;;;;;;2.67;67.77;95209.34;5056027;28;20024;-66
2022/02/27 05:24:03;;;;;;;26.58;16.63;;;;;;;2.65;68.27;95210.31;5074156;28;20028;-66
2022/02/27 05:26:28;;;;;;;28.13;17.02;;;;;;;2.62;68.74;95213.03;5073936;28;20432;-66
2022/02/27 05:28:54;;;;;;;30.55;16.33;;;;;;;2.63;68.88;95214.69;5072586;28;20479;-66
2022/02/27 05:31:19;;;;;;;30.13;15.75;;;;;;;2.62;68.88;95219.00;5055647;28;20028;-66
2022/02/27 05:33:44;;;;;;;28.80;16.25;;;;;;;2.53;69.66;95224.50;5072578;28;20040;-66
2022/02/27 05:36:10;;;;;;;24.05;15.20;;;;;;;2.48;69.93;95208.53;5055347;28;20441;-66
2022/02/27 05:38:35;;;;;;;29.15;16.95;;;;;;;2.45;69.83;95198.38;5072434;28;20050;-66
2022/02/27 05:41:01;;;;;;;29.20;16.65;;;;;;;2.47;70.29;95199.16;5073302;28;20090;-66
2022/02/27 05:43:26;;;;;;;29.38;16.35;;;;;;;2.38;70.92;95205.53;5072377;28;20588;-66
2022/02/27 05:45:51;;;;;;;27.75;17.00;;;;;;;2.36;70.75;95203.91;5072117;28;20017;-66
2022/02/27 05:48:17;;;;;;;32.75;17.35;;;;;;;2.37;70.59;95197.91;5055512;28;20572;-66
2022/02/27 05:50:42;;;;;;;35.28;18.65;;;;;;;2.28;71.04;95180.34;5055307;28;20470;-66
2022/02/27 05:53:08;;;;;;;39.90;20.33;;;;;;;2.34;70.61;95192.91;5073486;28;20040;-66
2022/02/27 05:55:33;;;;;;;39.13;21.73;;;;;;;2.34;71.45;95203.16;5072023;28;20036;-66
2022/02/27 05:57:58;;;;;;;40.22;23.25;;;;;;;2.31;71.20;95209.25;5073292;28;20470;-66
2022/02/27 06:00:24;;;;;;;46.25;29.40;;;;;;;2.24;71.83;95203.56;5055065;28;20028;-66
2022/02/27 06:02:49;;;;;;;42.85;25.85;;;;;;;2.25;71.81;95212.09;5073362;28;20090;-66
2022/02/27 06:05:15;;;;;;;39.63;25.08;;;;;;;2.26;71.62;95215.47;5072998;28;20482;-66
2022/02/27 06:07:40;;;;;;;46.42;27.60;;;;;;;2.13;72.36;95199.81;5071713;28;20037;-66
2022/02/27 06:10:06;;;;;;;46.75;26.48;;;;;;;2.21;72.25;95210.56;5072926;28;20047;-66
2022/02/27 06:12:31;;;;;;;42.92;25.35;;;;;;;2.20;71.56;95221.69;5071783;28;20153;-66
2022/02/27 06:14:57;;;;;;;42.05;24.88;;;;;;;2.18;72.35;95232.03;5072809;28;20383;-66
2022/02/27 06:17:22;;;;;;;40.85;24.98;;;;;;;2.13;72.06;95228.84;5071459;28;20392;-66
2022/02/27 06:19:48;;;;;;;44.75;25.17;;;;;;;2.12;71.76;95228.91;5070905;28;20021;-67
2022/02/27 06:22:14;;;;;;;44.38;25.33;;;;;;;2.05;72.84;95236.03;5071318;28;20020;-67
2022/02/27 06:24:39;;;;;;;40.30;23.38;;;;;;;2.01;73.19;95231.94;5071479;28;20043;-66
2022/02/27 06:27:05;;;;;;;35.97;20.75;;;;;;;1.98;73.43;95221.81;5072612;28;20021;-67
2022/02/27 06:29:30;;;;;;;33.67;19.92;;;;;;;1.95;73.34;95227.06;5071687;28;20430;-68
2022/02/27 06:31:55;;;;;;;37.45;20.73;;;;;;;1.94;73.46;95235.66;5072443;28;20036;-66
2022/02/27 06:34:21;;;;;;;33.85;20.10;;;;;;;1.85;74.00;95228.34;5071486;28;20471;-67
2022/02/27 06:36:46;;;;;;;37.47;20.58;;;;;;;1.87;73.50;95231.69;5072297;28;20525;-67
2022/02/27 06:39:12;;;;;;;37.75;19.77;;;;;;;1.81;73.68;95229.38;5071097;28;20036;-67
2022/02/27 06:41:37;;;;;;;34.90;20.88;;;;;;;1.76;73.56;95209.91;5072213;28;20406;-67
2022/02/27 06:44:03;;;;;;;36.75;20.88;;;;;;;1.74;73.81;95216.81;5072603;28;20028;-68
2022/02/27 06:46:29;;;;;;;36.03;19.75;;;;;;;1.74;74.14;95223.69;5070990;28;20074;-68
2022/02/27 06:48:54;;;;;;;35.78;20.70;;;;;;;1.79;73.86;95221.75;5037871;28;20036;-68
2022/02/27 06:51:20;;;;;;;38.38;22.42;;;;;;;1.85;74.50;95215.53;5072037;28;20028;-68
2022/02/27 06:53:45;;;;;;;49.00;24.33;;;;;;;1.84;73.90;95224.09;5071188;28;20089;-68
2022/02/27 06:56:11;;;;;;;49.25;25.98;;;;;;;1.76;74.33;95232.97;5070819;28;20032;-66
2022/02/27 06:58:36;;;;;;;50.47;26.85;;;;;;;1.75;74.16;95235.56;5054285;28;20391;-68
2022/02/27 07:01:01;;;;;;;53.90;27.15;;;;;;;1.75;74.37;95235.56;5071766;28;20036;-68
2022/02/27 07:03:27;;;;;;;45.88;25.95;;;;;;;1.65;74.20;95218.94;5070746;28;20025;-68
2022/02/27 07:05:52;;;;;;;45.72;24.65;;;;;;;1.73;74.56;95243.34;5070552;28;20044;-66
2022/02/27 07:08:18;;;;;;;42.55;23.30;;;;;;;1.64;75.16;95238.56;5053887;28;20021;-66
2022/02/27 07:10:43;;;;;;;30.52;17.33;;;;;;;1.51;75.12;95222.06;5071647;28;20035;-66
2022/02/27 07:13:08;;;;;;;27.60;15.50;;;;;;;1.49;75.24;95242.59;5071858;28;20032;-66
2022/02/27 07:15:34;;;;;;;31.38;17.13;;;;;;;1.41;76.03;95241.25;5071629;28;20032;-66
2022/02/27 07:18:01;;;;;;;31.85;16.83;;;;;;;1.37;76.37;95232.03;5070489;28;20033;-68
2022/02/27 07:20:26;;;;;;;28.98;16.05;;;;;;;1.43;75.83;95239.47;5071686;28;20071;-66
2022/02/27 07:22:52;;;;;;;27.75;15.15;;;;;;;1.36;76.06;95232.91;5070294;28;20032;-66
2022/02/27 07:25:17;;;;;;;25.92;14.57;;;;;;;1.31;76.57;95233.13;5070147;28;20025;-66
2022/02/27 07:27:42;;;;;;;31.35;16.85;;;;;;;1.25;76.41;95231.59;5053539;28;20024;-67
2022/02/27 07:30:08;;;;;;;26.77;14.98;;;;;;;1.29;77.23;95235.72;5070615;28;20039;-66
2022/02/27 07:32:34;;;;;;;25.75;15.38;;;;;;;1.22;77.12;95216.38;5071382;28;20025;-68
2022/02/27 07:34:59;;;;;;;29.77;16.52;;;;;;;1.30;77.40;95231.44;5071262;28;20032;-68
2022/02/27 07:37:25;;;;;;;57.45;21.60;;;;;;;1.26;76.90;95217.94;5071159;28;20048;-66
2022/02/27 07:39:50;;;;;;;43.53;20.35;;;;;;;1.33;76.83;95223.63;5069867;28;20032;-67
2022/02/27 07:42:17;;;;;;;37.65;18.58;;;;;;;1.17;77.13;95208.06;5069972;28;20044;-65
2022/02/27 07:44:42;;;;;;;34.00;17.58;;;;;;;1.24;77.25;95229.97;5053227;28;20052;-65
2022/02/27 07:47:08;;;;;;;31.58;17.30;;;;;;;1.13;77.09;95210.81;5071036;28;20028;-67
2022/02/27 07:49:33;;;;;;;31.25;17.58;;;;;;;1.23;77.43;95222.34;5071662;28;20029;-67
2022/02/27 07:51:59;;;;;;;30.42;17.38;;;;;;;1.19;77.16;95215.69;5069859;28;20213;-68
2022/02/27 07:54:24;;;;;;;31.55;17.65;;;;;;;1.27;77.36;95219.59;5070011;28;20028;-67
2022/02/27 07:56:50;;;;;;;31.92;17.85;;;;;;;1.31;77.63;95226.28;5053071;28;20525;-65
2022/02/27 07:59:15;;;;;;;30.05;17.05;;;;;;;1.37;76.97;95219.25;5053219;28;20032;-68
2022/02/27 08:01:41;;;;;;;26.42;16.73;;;;;;;1.36;76.97;95220.94;5069586;28;20039;-67
2022/02/27 08:04:06;;;;;;;27.63;16.48;;;;;;;1.40;77.14;95224.25;5053219;28;20525;-65
2022/02/27 08:06:37;;;;;;;28.75;16.25;;;;;;;1.40;76.82;95229.34;5071101;28;20395;-65
2022/02/27 08:09:06;;;;;;;24.65;15.60;;;;;;;1.43;77.16;95235.19;5054065;28;20070;-65
2022/02/27 08:11:32;;;;;;;30.15;15.80;;;;;;;1.52;77.07;95244.22;5069576;28;20404;-65
2022/02/27 08:13:58;;;;;;;28.55;16.52;;;;;;;1.56;76.47;95240.63;5069653;28;20062;-65
2022/02/27 08:16:23;;;;;;;24.45;14.88;;;;;;;1.52;76.54;95239.91;5070755;28;20056;-65
2022/02/27 08:18:49;;;;;;;26.92;14.90;;;;;;;1.49;76.95;95239.22;5069472;28;20465;-65
2022/02/27 08:21:14;;;;;;;26.45;16.02;;;;;;;1.47;76.74;95238.44;5069410;28;20041;-66
2022/02/27 08:23:39;;;;;;;27.30;16.02;;;;;;;1.45;76.77;95242.78;5052864;28;20032;-65
2022/02/27 08:26:05;;;;;;;29.20;16.88;;;;;;;1.45;77.14;95237.66;5069467;28;20044;-65
2022/02/27 08:28:31;;;;;;;26.33;16.48;;;;;;;1.48;77.02;95237.56;5069610;28;20040;-65
2022/02/27 08:30:57;;;;;;;23.33;15.18;;;;;;;1.43;77.11;95234.34;5070543;28;20043;-65
2022/02/27 08:33:23;;;;;;;27.60;16.42;;;;;;;1.42;77.60;95227.53;5052884;28;20478;-65
2022/02/27 08:35:48;;;;;;;24.08;15.25;;;;;;;1.40;77.33;95222.50;5070486;28;20028;-65
2022/02/27 08:38:14;;;;;;;26.58;16.55;;;;;;;1.37;77.67;95221.81;5069442;28;20052;-65
2022/02/27 08:40:39;;;;;;;25.75;15.38;;;;;;;1.33;77.78;95213.41;5070367;28;20044;-65
2022/02/27 08:43:04;;;;;;;27.88;15.30;;;;;;;1.38;77.49;95210.66;5055760;28;20021;-65
2022/02/27 08:45:31;;;;;;;23.38;14.55;;;;;;;1.47;77.15;95217.97;5073288;28;20039;-65
2022/02/27 08:47:56;;;;;;;27.35;16.48;;;;;;;1.54;76.75;95216.81;5073349;28;20039;-65
2022/02/27 08:50:22;;;;;;;26.38;15.60;;;;;;;1.56;76.84;95225.25;5056451;28;20033;-65
2022/02/27 08:52:47;;;;;;;24.85;14.35;;;;;;;1.60;76.79;95216.56;5073120;28;20028;-66
2022/02/27 08:55:15;;;;;;;25.30;15.50;;;;;;;1.54;76.04;95202.28;5056480;28;20039;-65
2022/02/27 08:57:41;;;;;;;24.52;14.70;;;;;;;1.59;77.29;95211.50;5057038;28;20111;-65
2022/02/27 09:00:09;;;;;;;18.48;12.40;;;;;;;1.63;76.32;95211.31;5056318;28;20048;-65
2022/02/27 09:02:35;;;;;;;22.20;14.48;;;;;;;1.61;76.28;95210.53;5073023;28;20467;-64
2022/02/27 09:05:00;;;;;;;28.27;17.33;;;;;;;1.65;76.56;95213.81;5039604;28;20047;-64
2022/02/27 09:07:26;;;;;;;28.98;17.83;;;;;;;1.63;77.21;95213.88;5074162;28;20227;-65
2022/02/27 09:09:52;;;;;;;31.38;18.85;;;;;;;1.64;77.15;95214.69;5074063;28;20098;-65
2022/02/27 09:12:17;;;;;;;22.17;14.90;;;;;;;1.65;77.13;95209.53;5072682;28;20505;-65
2022/02/27 09:14:44;;;;;;;26.50;16.98;;;;;;;1.70;77.01;95207.63;5072744;28;20083;-66
2022/02/27 09:17:10;;;;;;;28.67;18.00;;;;;;;1.75;76.78;95209.97;5073865;28;20116;-65
2022/02/27 09:19:35;;;;;;;35.55;20.77;;;;;;;1.71;77.08;95201.59;5074322;28;20025;-65
2022/02/27 09:22:01;;;;;;;43.38;24.85;;;;;;;1.69;77.44;95205.09;5072548;28;20199;-65
2022/02/27 09:24:26;;;;;;;49.67;28.33;;;;;;;1.69;77.21;95195.69;5072749;28;20029;-65
2022/02/27 09:26:51;;;;;;;53.45;29.55;;;;;;;1.62;77.15;95189.16;5072466;28;20099;-65
2022/02/27 09:29:17;;;;;;;42.35;25.13;;;;;;;1.67;77.27;95189.81;5072683;28;20082;-65
2022/02/27 09:31:42;;;;;;;43.88;27.42;;;;;;;1.73;76.97;95191.28;5073549;28;20418;-66
2022/02/27 09:34:08;;;;;;;26.60;16.60;;;;;;;1.78;77.08;95197.03;5055976;28;20020;-66
2022/02/27 09:36:33;;;;;;;29.45;18.70;;;;;;;1.76;76.97;95196.28;5072119;28;20415;-66
2022/02/27 09:38:59;;;;;;;33.72;22.58;;;;;;;1.66;77.14;95185.56;5073787;28;20040;-68
2022/02/27 09:41:24;;;;;;;29.20;18.85;;;;;;;1.73;77.22;95197.22;5055522;28;20032;-66
2022/02/27 09:43:55;;;;;;;30.50;18.77;;;;;;;1.69;77.15;95195.69;5072358;28;20024;-65
2022/02/27 09:46:21;;;;;;;19.55;13.80;;;;;;;1.67;77.11;95194.94;5073348;28;20060;-66
2022/02/27 09:48:46;;;;;;;16.88;11.93;;;;;;;1.67;77.16;95197.50;5073686;28;20043;-66
2022/02/27 09:51:12;;;;;;;15.35;11.32;;;;;;;1.62;77.28;95196.03;5072136;28;20414;-66
2022/02/27 09:53:38;;;;;;;16.20;11.55;;;;;;;1.61;77.60;95204.59;5054629;28;20056;-66
2022/02/27 09:56:03;;;;;;;21.70;13.40;;;;;;;1.55;78.14;95203.13;5055344;28;20419;-65
2022/02/27 09:58:29;;;;;;;16.35;11.40;;;;;;;1.54;77.73;95197.16;5073560;28;20029;-66
2022/02/27 10:00:54;;;;;;;13.85;10.80;;;;;;;1.62;77.95;95199.41;5073014;28;20491;-65
2022/02/27 10:03:28;;;;;;;14.75;10.88;;;;;;;1.57;77.48;95201.31;5038694;28;20051;-66
2022/02/27 10:06:00;;;;;;;16.05;10.88;;;;;;;1.59;77.83;95186.75;5073327;28;20043;-66
2022/02/27 10:08:25;;;;;;;;;;;;;;;1.65;77.61;95190.78;5072371;28;20471;-66
2022/02/27 10:10:55;;;;;;;12.20;9.00;;;;;;;1.59;78.01;95179.06;5088519;28;19927;-66
2022/02/27 10:13:34;;;;;;;11.35;9.00;;;;;;;1.58;77.97;95177.38;5055233;28;20028;-66
2022/02/27 10:16:04;;;;;;;13.07;9.90;;;;;;;1.67;78.09;95182.13;5071612;28;20040;-66
2022/02/27 10:18:37;;;;;;;14.68;9.63;;;;;;;1.63;77.49;95160.09;5071704;28;20036;-66
2022/02/27 10:21:02;;;;;;;15.13;11.55;;;;;;;1.83;77.37;95168.66;5072699;28;20499;-65
2022/02/27 10:23:28;;;;;;;19.30;13.95;;;;;;;1.89;77.69;95174.34;5072972;28;20078;-66
2022/02/27 10:25:53;;;;;;;16.25;11.43;;;;;;;1.93;76.88;95181.00;5072613;28;20028;-66
2022/02/27 10:28:20;;;;;;;16.35;11.18;;;;;;;1.97;77.02;95181.69;5071479;28;20025;-66
2022/02/27 10:30:46;;;;;;;16.05;10.80;;;;;;;2.01;76.66;95180.69;5054577;28;20036;-66
2022/02/27 10:33:12;;;;;;;19.35;12.75;;;;;;;2.06;76.41;95173.59;5054683;28;20016;-66
2022/02/27 10:35:46;;;;;;;37.42;24.00;;;;;;;2.12;76.08;95169.97;5054593;28;20043;-66
2022/02/27 10:38:14;;;;;;;24.50;16.13;;;;;;;2.15;76.41;95157.84;5072715;28;20528;-66
2022/02/27 10:40:48;;;;;;;26.95;14.85;;;;;;;2.08;76.27;95142.78;5071020;28;20478;-66
2022/02/27 10:43:13;;;;;;;24.92;13.52;;;;;;;2.16;75.68;95163.78;5072450;28;20383;-66
2022/02/27 10:45:39;;;;;;;23.20;14.15;;;;;;;2.19;76.20;95167.03;5070976;28;20055;-66
2022/02/27 10:48:09;;;;;;;46.80;40.28;;;;;;;2.21;76.19;95154.16;5070951;28;20560;-66
2022/02/27 10:50:34;;;;;;;22.00;11.85;;;;;;;2.16;76.01;95144.09;5070917;28;20491;-67
2022/02/27 10:53:00;;;;;;;25.77;13.27;;;;;;;2.16;75.92;95149.25;5070948;28;20089;-66
2022/02/27 10:55:27;;;;;;;19.40;11.05;;;;;;;2.12;76.48;95144.34;5070812;28;20511;-66
2022/02/27 10:57:52;;;;;;;17.33;11.15;;;;;;;2.15;76.23;95152.72;5054206;28;20120;-67
2022/02/27 11:00:25;;;;;;;16.58;9.57;;;;;;;2.21;76.28;95155.00;5053878;28;20119;-66
2022/02/27 11:03:04;;;;;;;12.15;8.73;;;;;;;2.19;76.09;95149.09;5070656;28;20028;-67
2022/02/27 11:05:31;;;;;;;15.27;9.45;;;;;;;2.22;75.57;95146.41;5054813;28;20053;-66
2022/02/27 11:07:58;;;;;;;16.48;11.20;;;;;;;2.28;75.84;95147.03;5070666;28;20106;-67
2022/02/27 11:10:25;;;;;;;18.48;12.98;;;;;;;2.30;75.90;95148.63;5054074;28;20384;-67
2022/02/27 11:12:50;;;;;;;25.58;19.25;;;;;;;2.29;75.16;95146.16;5072002;28;20107;-67
2022/02/27 11:15:18;;;;;;;20.33;12.68;;;;;;;2.28;74.79;95137.59;5070477;28;20503;-68
2022/02/27 11:17:45;;;;;;;23.05;12.40;;;;;;;2.26;74.44;95141.13;5070384;28;20040;-66
2022/02/27 11:20:11;;;;;;;22.80;12.55;;;;;;;2.21;74.27;95141.34;5071490;28;20051;-65